sensor_id;sensor_type;location;lat;lon;timestamp;pressure;altitude;pressure_sealevel;temperature
60003;BMP280;46322;52.018;8.702;2022-08-01T00:03:17;100149.22;;;24.58
60003;BMP280;46322;52.018;8.702;2022-08-01T00:08:17;100143.47;;;24.72
60003;BMP280;46322;52.018;8.702;2022-08-01T00:13:18;100150.19;;;25.20
60003;BMP280;46322;52.018;8.702;2022-08-01T00:18:18;100148.94;;;24.53
60003;BMP280;46322;52.018;8.702;2022-08-01T00:23:18;100149.03;;;24.85
60003;BMP280;46322;52.018;8.702;2022-08-01T00:28:19;100149.31;;;25.07
60003;BMP280;46322;52.018;8.702;2022-08-01T00:33:19;100148.47;;;24.94
60003;BMP280;46322;52.018;8.702;2022-08-01T00:38:19;100150.47;;;24.54
60003;BMP280;46322;52.018;8.702;2022-08-01T00:43:19;100151.22;;;24.54
60003;BMP280;46322;52.018;8.702;2022-08-01T00:48:20;100152.50;;;24.30
60003;BMP280;46322;52.018;8.702;2022-08-01T00:53:20;100153.09;;;23.98
60003;BMP280;46322;52.018;8.702;2022-08-01T00:58:20;100156.03;;;24.47
60003;BMP280;46322;52.018;8.702;2022-08-01T01:03:22;100155.13;;;24.89
60003;BMP280;46322;52.018;8.702;2022-08-01T01:08:29;100155.31;;;24.42
60003;BMP280;46322;52.018;8.702;2022-08-01T01:13:42;100146.47;;;25.14
60003;BMP280;46322;52.018;8.702;2022-08-01T01:18:51;100147.63;;;25.29
60003;BMP280;46322;52.018;8.702;2022-08-01T01:29:16;100155.50;;;24.71
60003;BMP280;46322;52.018;8.702;2022-08-01T01:34:18;100151.72;;;24.69
60003;BMP280;46322;52.018;8.702;2022-08-01T01:39:32;100161.34;;;24.11
60003;BMP280;46322;52.018;8.702;2022-08-01T01:44:34;100152.91;;;24.48
60003;BMP280;46322;52.018;8.702;2022-08-01T01:49:39;100164.97;;;24.04
60003;BMP280;46322;52.018;8.702;2022-08-01T01:54:46;100172.34;;;23.80
60003;BMP280;46322;52.018;8.702;2022-08-01T01:59:49;100172.16;;;24.34
60003;BMP280;46322;52.018;8.702;2022-08-01T02:04:51;100177.28;;;24.48
60003;BMP280;46322;52.018;8.702;2022-08-01T02:10:11;100175.69;;;24.51
60003;BMP280;46322;52.018;8.702;2022-08-01T02:15:13;100172.53;;;24.13
60003;BMP280;46322;52.018;8.702;2022-08-01T02:20:14;100171.84;;;23.62
60003;BMP280;46322;52.018;8.702;2022-08-01T02:25:25;100184.44;;;23.95
60003;BMP280;46322;52.018;8.702;2022-08-01T02:30:26;100174.50;;;23.89
60003;BMP280;46322;52.018;8.702;2022-08-01T02:35:32;100166.69;;;24.14
60003;BMP280;46322;52.018;8.702;2022-08-01T02:40:34;100175.00;;;23.84
60003;BMP280;46322;52.018;8.702;2022-08-01T02:45:39;100175.56;;;23.95
60003;BMP280;46322;52.018;8.702;2022-08-01T02:50:44;100181.22;;;23.81
60003;BMP280;46322;52.018;8.702;2022-08-01T02:55:46;100175.19;;;23.46
60003;BMP280;46322;52.018;8.702;2022-08-01T03:00:47;100177.53;;;24.14
60003;BMP280;46322;52.018;8.702;2022-08-01T03:05:48;100181.63;;;23.79
60003;BMP280;46322;52.018;8.702;2022-08-01T03:10:50;100180.53;;;24.59
60003;BMP280;46322;52.018;8.702;2022-08-01T03:15:51;100186.88;;;24.53
60003;BMP280;46322;52.018;8.702;2022-08-01T03:20:55;100190.13;;;24.64
60003;BMP280;46322;52.018;8.702;2022-08-01T03:25:58;100192.25;;;24.13
60003;BMP280;46322;52.018;8.702;2022-08-01T03:31:00;100198.72;;;24.78
60003;BMP280;46322;52.018;8.702;2022-08-01T03:36:02;100190.84;;;24.68
60003;BMP280;46322;52.018;8.702;2022-08-01T03:41:09;100197.19;;;24.77
60003;BMP280;46322;52.018;8.702;2022-08-01T03:46:17;100202.19;;;24.99
60003;BMP280;46322;52.018;8.702;2022-08-01T03:51:21;100200.22;;;24.63
60003;BMP280;46322;52.018;8.702;2022-08-01T03:56:22;100202.00;;;24.70
60003;BMP280;46322;52.018;8.702;2022-08-01T04:01:24;100210.84;;;24.74
60003;BMP280;46322;52.018;8.702;2022-08-01T04:06:24;100213.59;;;25.26
60003;BMP280;46322;52.018;8.702;2022-08-01T04:16:25;100207.84;;;25.40
60003;BMP280;46322;52.018;8.702;2022-08-01T04:21:28;100213.06;;;24.59
60003;BMP280;46322;52.018;8.702;2022-08-01T04:26:32;100217.28;;;25.00
60003;BMP280;46322;52.018;8.702;2022-08-01T04:31:34;100225.88;;;25.14
60003;BMP280;46322;52.018;8.702;2022-08-01T04:36:36;100224.84;;;25.08
60003;BMP280;46322;52.018;8.702;2022-08-01T04:41:37;100234.88;;;25.28
60003;BMP280;46322;52.018;8.702;2022-08-01T04:46:40;100241.69;;;25.52
60003;BMP280;46322;52.018;8.702;2022-08-01T04:51:51;100245.59;;;25.15
60003;BMP280;46322;52.018;8.702;2022-08-01T04:56:56;100251.81;;;25.15
60003;BMP280;46322;52.018;8.702;2022-08-01T05:01:56;100258.59;;;25.24
60003;BMP280;46322;52.018;8.702;2022-08-01T05:06:57;100253.16;;;24.88
60003;BMP280;46322;52.018;8.702;2022-08-01T05:11:58;100257.09;;;25.39
60003;BMP280;46322;52.018;8.702;2022-08-01T05:17:02;100254.22;;;25.46
60003;BMP280;46322;52.018;8.702;2022-08-01T05:22:05;100255.81;;;25.59
60003;BMP280;46322;52.018;8.702;2022-08-01T05:27:06;100256.59;;;25.76
60003;BMP280;46322;52.018;8.702;2022-08-01T05:32:07;100263.28;;;25.39
60003;BMP280;46322;52.018;8.702;2022-08-01T05:37:10;100260.03;;;26.09
60003;BMP280;46322;52.018;8.702;2022-08-01T05:42:10;100270.22;;;26.21
60003;BMP280;46322;52.018;8.702;2022-08-01T05:47:10;100268.66;;;25.75
60003;BMP280;46322;52.018;8.702;2022-08-01T05:52:11;100277.72;;;25.52
60003;BMP280;46322;52.018;8.702;2022-08-01T05:57:11;100275.19;;;25.45
60003;BMP280;46322;52.018;8.702;2022-08-01T06:02:12;100283.97;;;25.66
60003;BMP280;46322;52.018;8.702;2022-08-01T06:07:12;100283.56;;;25.83
60003;BMP280;46322;52.018;8.702;2022-08-01T06:12:12;100284.28;;;25.55
60003;BMP280;46322;52.018;8.702;2022-08-01T06:17:12;100296.75;;;25.69
60003;BMP280;46322;52.018;8.702;2022-08-01T06:22:13;100298.72;;;25.32
60003;BMP280;46322;52.018;8.702;2022-08-01T06:27:14;100299.78;;;26.19
60003;BMP280;46322;52.018;8.702;2022-08-01T06:32:14;100305.66;;;25.85
60003;BMP280;46322;52.018;8.702;2022-08-01T06:37:15;100307.28;;;26.86
60003;BMP280;46322;52.018;8.702;2022-08-01T06:42:15;100305.28;;;26.61
60003;BMP280;46322;52.018;8.702;2022-08-01T06:47:15;100314.91;;;26.91
60003;BMP280;46322;52.018;8.702;2022-08-01T06:52:15;100302.97;;;27.13
60003;BMP280;46322;52.018;8.702;2022-08-01T06:57:16;100309.75;;;27.09
60003;BMP280;46322;52.018;8.702;2022-08-01T07:02:16;100315.41;;;26.15
60003;BMP280;46322;52.018;8.702;2022-08-01T07:07:17;100320.09;;;26.44
60003;BMP280;46322;52.018;8.702;2022-08-01T07:12:17;100312.03;;;25.07
60003;BMP280;46322;52.018;8.702;2022-08-01T07:17:17;100319.31;;;24.70
60003;BMP280;46322;52.018;8.702;2022-08-01T07:22:17;100317.50;;;25.59
60003;BMP280;46322;52.018;8.702;2022-08-01T07:27:18;100311.84;;;25.70
60003;BMP280;46322;52.018;8.702;2022-08-01T07:32:18;100310.53;;;26.52
60003;BMP280;46322;52.018;8.702;2022-08-01T07:37:18;100314.72;;;26.11
60003;BMP280;46322;52.018;8.702;2022-08-01T07:42:19;100331.16;;;26.37
60003;BMP280;46322;52.018;8.702;2022-08-01T07:47:24;100340.72;;;25.96
60003;BMP280;46322;52.018;8.702;2022-08-01T07:52:24;100336.81;;;26.13
60003;BMP280;46322;52.018;8.702;2022-08-01T07:57:25;100354.03;;;25.90
60003;BMP280;46322;52.018;8.702;2022-08-01T08:02:25;100342.47;;;27.05
60003;BMP280;46322;52.018;8.702;2022-08-01T08:07:25;100353.00;;;26.91
60003;BMP280;46322;52.018;8.702;2022-08-01T08:12:26;100361.13;;;27.58
60003;BMP280;46322;52.018;8.702;2022-08-01T08:17:29;100358.75;;;27.60
60003;BMP280;46322;52.018;8.702;2022-08-01T08:22:29;100359.25;;;27.80
60003;BMP280;46322;52.018;8.702;2022-08-01T08:27:30;100356.31;;;27.87
60003;BMP280;46322;52.018;8.702;2022-08-01T08:32:30;100362.56;;;28.44
60003;BMP280;46322;52.018;8.702;2022-08-01T08:37:30;100366.81;;;28.23
60003;BMP280;46322;52.018;8.702;2022-08-01T08:42:31;100372.19;;;28.48
60003;BMP280;46322;52.018;8.702;2022-08-01T08:47:32;100372.84;;;28.52
60003;BMP280;46322;52.018;8.702;2022-08-01T08:52:35;100367.78;;;28.16
60003;BMP280;46322;52.018;8.702;2022-08-01T08:58:10;100378.34;;;27.67
60003;BMP280;46322;52.018;8.702;2022-08-01T09:03:12;100385.06;;;28.69
60003;BMP280;46322;52.018;8.702;2022-08-01T09:08:12;100385.78;;;29.13
60003;BMP280;46322;52.018;8.702;2022-08-01T09:13:14;100389.31;;;28.70
60003;BMP280;46322;52.018;8.702;2022-08-01T09:23:36;100403.94;;;27.32
60003;BMP280;46322;52.018;8.702;2022-08-01T09:28:37;100410.06;;;26.78
60003;BMP280;46322;52.018;8.702;2022-08-01T09:34:07;100419.56;;;27.15
60003;BMP280;46322;52.018;8.702;2022-08-01T09:39:12;100425.63;;;28.11
60003;BMP280;46322;52.018;8.702;2022-08-01T09:44:14;100418.97;;;29.43
60003;BMP280;46322;52.018;8.702;2022-08-01T09:49:31;100421.19;;;29.66
60003;BMP280;46322;52.018;8.702;2022-08-01T09:54:33;100425.06;;;29.87
60003;BMP280;46322;52.018;8.702;2022-08-01T09:59:41;100434.41;;;29.68
60003;BMP280;46322;52.018;8.702;2022-08-01T10:04:48;100426.34;;;28.59
60003;BMP280;46322;52.018;8.702;2022-08-01T10:09:49;100430.88;;;29.18
60003;BMP280;46322;52.018;8.702;2022-08-01T10:14:50;100433.91;;;29.60
60003;BMP280;46322;52.018;8.702;2022-08-01T10:19:55;100432.78;;;29.79
60003;BMP280;46322;52.018;8.702;2022-08-01T10:24:56;100429.69;;;30.54
60003;BMP280;46322;52.018;8.702;2022-08-01T10:30:01;100429.09;;;30.50
60003;BMP280;46322;52.018;8.702;2022-08-01T10:35:04;100428.22;;;29.76
60003;BMP280;46322;52.018;8.702;2022-08-01T10:40:06;100423.94;;;28.61
60003;BMP280;46322;52.018;8.702;2022-08-01T10:45:08;100427.31;;;28.30
60003;BMP280;46322;52.018;8.702;2022-08-01T10:50:17;100423.34;;;27.72
60003;BMP280;46322;52.018;8.702;2022-08-01T10:55:18;100424.13;;;27.85
60003;BMP280;46322;52.018;8.702;2022-08-01T11:00:19;100424.53;;;27.58
60003;BMP280;46322;52.018;8.702;2022-08-01T11:05:21;100424.84;;;27.98
60003;BMP280;46322;52.018;8.702;2022-08-01T11:10:33;100422.84;;;29.24
60003;BMP280;46322;52.018;8.702;2022-08-01T11:15:38;100430.91;;;29.67
60003;BMP280;46322;52.018;8.702;2022-08-01T11:20:54;100417.69;;;29.26
60003;BMP280;46322;52.018;8.702;2022-08-01T11:41:17;100437.72;;;28.45
60003;BMP280;46322;52.018;8.702;2022-08-01T11:46:17;100437.75;;;28.32
60003;BMP280;46322;52.018;8.702;2022-08-01T11:51:18;100431.19;;;28.77
60003;BMP280;46322;52.018;8.702;2022-08-01T11:56:18;100436.97;;;28.79
60003;BMP280;46322;52.018;8.702;2022-08-01T12:01:19;100433.31;;;28.60
60003;BMP280;46322;52.018;8.702;2022-08-01T12:06:29;100443.16;;;28.57
60003;BMP280;46322;52.018;8.702;2022-08-01T12:11:30;100444.34;;;28.56
60003;BMP280;46322;52.018;8.702;2022-08-01T12:16:30;100440.59;;;28.76
60003;BMP280;46322;52.018;8.702;2022-08-01T12:21:30;100440.88;;;29.21
60003;BMP280;46322;52.018;8.702;2022-08-01T12:26:43;100456.34;;;28.81
60003;BMP280;46322;52.018;8.702;2022-08-01T12:31:43;100461.06;;;28.46
60003;BMP280;46322;52.018;8.702;2022-08-01T12:36:43;100461.44;;;29.13
60003;BMP280;46322;52.018;8.702;2022-08-01T12:41:45;100467.38;;;29.11
60003;BMP280;46322;52.018;8.702;2022-08-01T12:46:45;100466.84;;;29.04
60003;BMP280;46322;52.018;8.702;2022-08-01T12:51:45;100470.31;;;28.61
60003;BMP280;46322;52.018;8.702;2022-08-01T12:56:47;100475.69;;;28.39
60003;BMP280;46322;52.018;8.702;2022-08-01T13:01:47;100485.56;;;29.14
60003;BMP280;46322;52.018;8.702;2022-08-01T13:06:54;100489.59;;;27.69
60003;BMP280;46322;52.018;8.702;2022-08-01T13:11:54;100487.50;;;27.73
60003;BMP280;46322;52.018;8.702;2022-08-01T13:16:59;100491.06;;;28.58
60003;BMP280;46322;52.018;8.702;2022-08-01T13:21:59;100489.25;;;28.77
60003;BMP280;46322;52.018;8.702;2022-08-01T13:27:01;100491.47;;;29.35
60003;BMP280;46322;52.018;8.702;2022-08-01T13:32:12;100487.41;;;28.27
60003;BMP280;46322;52.018;8.702;2022-08-01T13:37:13;100491.97;;;30.86
60003;BMP280;46322;52.018;8.702;2022-08-01T13:42:15;100485.94;;;31.24
60003;BMP280;46322;52.018;8.702;2022-08-01T13:47:15;100493.56;;;30.02
60003;BMP280;46322;52.018;8.702;2022-08-01T13:52:16;100488.97;;;30.57
60003;BMP280;46322;52.018;8.702;2022-08-01T13:57:16;100490.28;;;30.16
60003;BMP280;46322;52.018;8.702;2022-08-01T14:02:16;100497.75;;;30.61
60003;BMP280;46322;52.018;8.702;2022-08-01T14:07:17;100490.00;;;30.77
60003;BMP280;46322;52.018;8.702;2022-08-01T14:12:17;100495.03;;;30.70
60003;BMP280;46322;52.018;8.702;2022-08-01T14:17:17;100489.72;;;29.81
60003;BMP280;46322;52.018;8.702;2022-08-01T14:22:17;100498.31;;;30.10
60003;BMP280;46322;52.018;8.702;2022-08-01T14:27:18;100496.88;;;29.87
60003;BMP280;46322;52.018;8.702;2022-08-01T14:32:18;100494.50;;;30.08
60003;BMP280;46322;52.018;8.702;2022-08-01T14:37:19;100498.72;;;29.07
60003;BMP280;46322;52.018;8.702;2022-08-01T14:42:19;100485.38;;;29.62
60003;BMP280;46322;52.018;8.702;2022-08-01T14:47:20;100486.59;;;31.61
60003;BMP280;46322;52.018;8.702;2022-08-01T14:52:20;100490.88;;;31.02
60003;BMP280;46322;52.018;8.702;2022-08-01T14:57:20;100471.50;;;31.89
60003;BMP280;46322;52.018;8.702;2022-08-01T15:02:21;100467.84;;;32.54
60003;BMP280;46322;52.018;8.702;2022-08-01T15:07:21;100466.44;;;32.21
60003;BMP280;46322;52.018;8.702;2022-08-01T15:12:22;100467.44;;;31.85
60003;BMP280;46322;52.018;8.702;2022-08-01T15:17:25;100479.78;;;31.56
60003;BMP280;46322;52.018;8.702;2022-08-01T15:22:27;100483.59;;;32.30
60003;BMP280;46322;52.018;8.702;2022-08-01T15:27:29;100479.91;;;32.09
60003;BMP280;46322;52.018;8.702;2022-08-01T15:32:29;100494.13;;;31.42
60003;BMP280;46322;52.018;8.702;2022-08-01T15:37:29;100491.38;;;30.91
60003;BMP280;46322;52.018;8.702;2022-08-01T15:42:29;100489.25;;;30.86
60003;BMP280;46322;52.018;8.702;2022-08-01T15:47:30;100481.13;;;31.61
60003;BMP280;46322;52.018;8.702;2022-08-01T15:52:30;100490.41;;;31.87
60003;BMP280;46322;52.018;8.702;2022-08-01T15:57:30;100488.56;;;32.70
60003;BMP280;46322;52.018;8.702;2022-08-01T16:02:31;100485.56;;;31.82
60003;BMP280;46322;52.018;8.702;2022-08-01T16:07:31;100483.16;;;29.78
60003;BMP280;46322;52.018;8.702;2022-08-01T16:12:31;100487.41;;;30.37
60003;BMP280;46322;52.018;8.702;2022-08-01T16:17:32;100491.97;;;30.22
60003;BMP280;46322;52.018;8.702;2022-08-01T16:22:32;100484.94;;;30.03
60003;BMP280;46322;52.018;8.702;2022-08-01T16:27:32;100489.19;;;30.13
60003;BMP280;46322;52.018;8.702;2022-08-01T16:32:33;100485.53;;;31.16
60003;BMP280;46322;52.018;8.702;2022-08-01T16:37:34;100487.69;;;30.94
60003;BMP280;46322;52.018;8.702;2022-08-01T16:42:34;100495.34;;;30.54
60003;BMP280;46322;52.018;8.702;2022-08-01T16:47:34;100486.22;;;32.78
60003;BMP280;46322;52.018;8.702;2022-08-01T16:52:35;100485.00;;;32.26
60003;BMP280;46322;52.018;8.702;2022-08-01T16:57:35;100487.53;;;32.29
60003;BMP280;46322;52.018;8.702;2022-08-01T17:02:36;100499.91;;;31.77
60003;BMP280;46322;52.018;8.702;2022-08-01T17:07:38;100490.34;;;33.17
60003;BMP280;46322;52.018;8.702;2022-08-01T17:12:40;100478.28;;;31.79
60003;BMP280;46322;52.018;8.702;2022-08-01T17:17:41;100481.44;;;33.22
60003;BMP280;46322;52.018;8.702;2022-08-01T17:22:41;100487.41;;;34.62
60003;BMP280;46322;52.018;8.702;2022-08-01T17:27:42;100485.66;;;35.81
60003;BMP280;46322;52.018;8.702;2022-08-01T17:32:42;100492.84;;;34.83
60003;BMP280;46322;52.018;8.702;2022-08-01T17:37:43;100483.91;;;39.11
60003;BMP280;46322;52.018;8.702;2022-08-01T17:42:44;100476.03;;;36.47
60003;BMP280;46322;52.018;8.702;2022-08-01T17:47:44;100485.28;;;36.16
60003;BMP280;46322;52.018;8.702;2022-08-01T17:52:44;100492.81;;;38.20
60003;BMP280;46322;52.018;8.702;2022-08-01T17:57:44;100490.72;;;37.38
60003;BMP280;46322;52.018;8.702;2022-08-01T18:02:45;100493.09;;;36.51
60003;BMP280;46322;52.018;8.702;2022-08-01T18:07:45;100501.38;;;36.62
60003;BMP280;46322;52.018;8.702;2022-08-01T18:12:45;100498.28;;;35.40
60003;BMP280;46322;52.018;8.702;2022-08-01T18:17:45;100497.56;;;34.25
60003;BMP280;46322;52.018;8.702;2022-08-01T18:22:46;100512.44;;;32.79
60003;BMP280;46322;52.018;8.702;2022-08-01T18:27:46;100500.19;;;31.55
60003;BMP280;46322;52.018;8.702;2022-08-01T18:32:46;100510.53;;;30.64
60003;BMP280;46322;52.018;8.702;2022-08-01T18:37:48;100514.66;;;29.61
60003;BMP280;46322;52.018;8.702;2022-08-01T18:42:49;100507.97;;;29.09
60003;BMP280;46322;52.018;8.702;2022-08-01T18:47:49;100505.81;;;28.48
60003;BMP280;46322;52.018;8.702;2022-08-01T18:52:49;100512.88;;;28.46
60003;BMP280;46322;52.018;8.702;2022-08-01T18:57:50;100510.72;;;28.28
60003;BMP280;46322;52.018;8.702;2022-08-01T19:02:50;100516.47;;;27.67
60003;BMP280;46322;52.018;8.702;2022-08-01T19:07:50;100521.25;;;27.50
60003;BMP280;46322;52.018;8.702;2022-08-01T19:12:50;100528.84;;;27.42
60003;BMP280;46322;52.018;8.702;2022-08-01T19:17:51;100539.94;;;27.35
60003;BMP280;46322;52.018;8.702;2022-08-01T19:22:51;100540.81;;;27.45
60003;BMP280;46322;52.018;8.702;2022-08-01T19:27:54;100544.28;;;27.74
60003;BMP280;46322;52.018;8.702;2022-08-01T19:32:55;100553.00;;;27.40
60003;BMP280;46322;52.018;8.702;2022-08-01T19:37:55;100558.41;;;27.57
60003;BMP280;46322;52.018;8.702;2022-08-01T19:42:56;100566.72;;;26.92
60003;BMP280;46322;52.018;8.702;2022-08-01T19:47:58;100563.72;;;27.19
60003;BMP280;46322;52.018;8.702;2022-08-01T19:53:01;100568.19;;;26.28
60003;BMP280;46322;52.018;8.702;2022-08-01T19:58:02;100562.97;;;26.86
60003;BMP280;46322;52.018;8.702;2022-08-01T20:03:02;100559.63;;;26.94
60003;BMP280;46322;52.018;8.702;2022-08-01T20:08:05;100568.50;;;26.50
60003;BMP280;46322;52.018;8.702;2022-08-01T20:13:06;100574.88;;;26.75
60003;BMP280;46322;52.018;8.702;2022-08-01T20:18:07;100580.25;;;26.95
60003;BMP280;46322;52.018;8.702;2022-08-01T20:23:09;100578.97;;;26.84
60003;BMP280;46322;52.018;8.702;2022-08-01T20:28:11;100577.28;;;26.90
60003;BMP280;46322;52.018;8.702;2022-08-01T20:33:12;100585.25;;;26.81
60003;BMP280;46322;52.018;8.702;2022-08-01T20:38:15;100575.50;;;26.67
60003;BMP280;46322;52.018;8.702;2022-08-01T20:43:20;100569.50;;;25.64
60003;BMP280;46322;52.018;8.702;2022-08-01T20:48:20;100570.72;;;25.40
60003;BMP280;46322;52.018;8.702;2022-08-01T20:53:24;100579.31;;;25.11
60003;BMP280;46322;52.018;8.702;2022-08-01T21:04:03;100584.44;;;24.56
60003;BMP280;46322;52.018;8.702;2022-08-01T21:09:05;100596.72;;;24.91
60003;BMP280;46322;52.018;8.702;2022-08-01T21:14:09;100592.75;;;24.41
60003;BMP280;46322;52.018;8.702;2022-08-01T21:19:29;100595.66;;;24.85
60003;BMP280;46322;52.018;8.702;2022-08-01T21:24:44;100594.78;;;24.91
60003;BMP280;46322;52.018;8.702;2022-08-01T21:30:05;100598.84;;;24.79
60003;BMP280;46322;52.018;8.702;2022-08-01T21:35:06;100601.88;;;24.55
60003;BMP280;46322;52.018;8.702;2022-08-01T21:40:08;100591.22;;;24.40
60003;BMP280;46322;52.018;8.702;2022-08-01T21:45:09;100593.53;;;24.08
60003;BMP280;46322;52.018;8.702;2022-08-01T21:50:09;100596.38;;;23.97
60003;BMP280;46322;52.018;8.702;2022-08-01T21:55:35;100581.31;;;23.55
60003;BMP280;46322;52.018;8.702;2022-08-01T22:00:38;100572.31;;;23.24
60003;BMP280;46322;52.018;8.702;2022-08-01T22:05:41;100582.25;;;22.86
60003;BMP280;46322;52.018;8.702;2022-08-01T22:10:42;100578.75;;;22.86
60003;BMP280;46322;52.018;8.702;2022-08-01T22:15:42;100579.56;;;23.35
60003;BMP280;46322;52.018;8.702;2022-08-01T22:20:45;100580.91;;;23.09
60003;BMP280;46322;52.018;8.702;2022-08-01T22:25:50;100587.16;;;23.02
60003;BMP280;46322;52.018;8.702;2022-08-01T22:30:51;100593.00;;;22.93
60003;BMP280;46322;52.018;8.702;2022-08-01T22:35:51;100600.75;;;22.84
60003;BMP280;46322;52.018;8.702;2022-08-01T22:40:59;100591.78;;;23.02
60003;BMP280;46322;52.018;8.702;2022-08-01T22:46:09;100594.34;;;22.57
60003;BMP280;46322;52.018;8.702;2022-08-01T22:51:25;100599.25;;;22.80
60003;BMP280;46322;52.018;8.702;2022-08-01T22:56:33;100608.78;;;22.08
60003;BMP280;46322;52.018;8.702;2022-08-01T23:01:36;100616.16;;;21.61
60003;BMP280;46322;52.018;8.702;2022-08-01T23:06:46;100611.16;;;21.95
60003;BMP280;46322;52.018;8.702;2022-08-01T23:11:46;100605.69;;;22.13
60003;BMP280;46322;52.018;8.702;2022-08-01T23:16:49;100612.69;;;21.89
60003;BMP280;46322;52.018;8.702;2022-08-01T23:21:50;100608.47;;;21.77
60003;BMP280;46322;52.018;8.702;2022-08-01T23:26:50;100608.81;;;21.87
60003;BMP280;46322;52.018;8.702;2022-08-01T23:31:51;100602.69;;;21.54
60003;BMP280;46322;52.018;8.702;2022-08-01T23:36:51;100596.13;;;21.62
60003;BMP280;46322;52.018;8.702;2022-08-01T23:41:51;100596.13;;;21.52
60003;BMP280;46322;52.018;8.702;2022-08-01T23:46:53;100605.38;;;21.29
60003;BMP280;46322;52.018;8.702;2022-08-01T23:51:53;100604.53;;;21.07
60003;BMP280;46322;52.018;8.702;2022-08-01T23:56:56;100601.47;;;21.02
